MAS2623 WMKJ-WMKL
Flight info
| Callsign | MAS2623 |
|---|---|
| Flight time | 1h 12m |
| Altitude | 34000 |
| Route | WMKJ PIMO1K PIMOK OGAKO VMK SAPAT VBA KAKAK ANBIK VPG KAPKO D155Q SATNI VIKEM KL401 FF03 WMKL |
| Aircraft | B738/M-VGDW/C |
Departure
| Time | 2026-04-30 04:27 |
|---|---|
| Airport | Senai International Airport (WMKJ) |
Arrival
| Time | 2026-04-30 05:40 |
|---|---|
| Airport | Langkawi International Airport (WMKL) |
| Time | Latitude | Longitude | Altitude | Speed | Heading |
|---|---|---|---|---|---|
| 2026-04-30 04:03 | 1.63607 | 103.66746 | 152 ft | 0 kts | 251° |
| 2026-04-30 04:13 | 1.63611 | 103.66760 | 152 ft | 2 kts | 251° |
| 2026-04-30 04:13 | 1.63617 | 103.66775 | 152 ft | 2 kts | 251° |
| 2026-04-30 04:13 | 1.63622 | 103.66791 | 152 ft | 2 kts | 253° |
| 2026-04-30 04:13 | 1.63625 | 103.66807 | 152 ft | 2 kts | 288° |
| 2026-04-30 04:14 | 1.63618 | 103.66817 | 152 ft | 1 kts | 340° |
| 2026-04-30 04:14 | 1.63614 | 103.66818 | 152 ft | 0 kts | 344° |
| 2026-04-30 04:21 | 1.63619 | 103.66817 | 152 ft | 2 kts | 353° |
| 2026-04-30 04:21 | 1.63645 | 103.66821 | 152 ft | 6 kts | 20° |
| 2026-04-30 04:21 | 1.63679 | 103.66858 | 152 ft | 9 kts | 65° |
| 2026-04-30 04:21 | 1.63704 | 103.66925 | 152 ft | 1 kts | 70° |
| 2026-04-30 04:23 | 1.63705 | 103.66925 | 152 ft | 0 kts | 70° |
| 2026-04-30 04:23 | 1.63713 | 103.66949 | 152 ft | 6 kts | 70° |
| 2026-04-30 04:24 | 1.63735 | 103.67005 | 152 ft | 11 kts | 61° |
| 2026-04-30 04:24 | 1.63810 | 103.67029 | 152 ft | 14 kts | 342° |
| 2026-04-30 04:24 | 1.63911 | 103.66992 | 153 ft | 17 kts | 338° |
| 2026-04-30 04:24 | 1.64029 | 103.66948 | 154 ft | 19 kts | 340° |
| 2026-04-30 04:25 | 1.64166 | 103.66898 | 153 ft | 22 kts | 340° |
| 2026-04-30 04:25 | 1.64279 | 103.66832 | 153 ft | 17 kts | 315° |
| 2026-04-30 04:25 | 1.64322 | 103.66830 | 153 ft | 2 kts | 81° |
| 2026-04-30 04:25 | 1.64312 | 103.66840 | 153 ft | 2 kts | 141° |
| 2026-04-30 04:26 | 1.64299 | 103.66847 | 153 ft | 2 kts | 147° |
| 2026-04-30 04:26 | 1.64285 | 103.66855 | 153 ft | 2 kts | 151° |
| 2026-04-30 04:26 | 1.64272 | 103.66861 | 153 ft | 0 kts | 158° |
| 2026-04-30 04:26 | 1.64270 | 103.66862 | 153 ft | 4 kts | 158° |
| 2026-04-30 04:27 | 1.64055 | 103.66941 | 154 ft | 68 kts | 160° |
| 2026-04-30 04:27 | 1.63393 | 103.67185 | 150 ft | 132 kts | 160° |
| 2026-04-30 04:27 | 1.62354 | 103.67572 | 212 ft | 180 kts | 158° |
| 2026-04-30 04:27 | 1.61150 | 103.68039 | 771 ft | 191 kts | 158° |
| 2026-04-30 04:28 | 1.59873 | 103.68510 | 1414 ft | 198 kts | 161° |
| 2026-04-30 04:28 | 1.58527 | 103.68585 | 2205 ft | 201 kts | 195° |
| 2026-04-30 04:28 | 1.57301 | 103.67856 | 2615 ft | 215 kts | 227° |
| 2026-04-30 04:28 | 1.56497 | 103.66573 | 2993 ft | 219 kts | 248° |
| 2026-04-30 04:29 | 1.55925 | 103.65198 | 3608 ft | 212 kts | 248° |
| 2026-04-30 04:29 | 1.55357 | 103.63806 | 3974 ft | 221 kts | 248° |
| 2026-04-30 04:29 | 1.54789 | 103.62382 | 4439 ft | 220 kts | 249° |
| 2026-04-30 04:29 | 1.54224 | 103.60927 | 4683 ft | 233 kts | 248° |
| 2026-04-30 04:30 | 1.53632 | 103.59379 | 4967 ft | 241 kts | 250° |
| 2026-04-30 04:30 | 1.53045 | 103.57761 | 5231 ft | 257 kts | 250° |
| 2026-04-30 04:30 | 1.52420 | 103.56000 | 5416 ft | 278 kts | 251° |
| 2026-04-30 04:30 | 1.51824 | 103.54135 | 5930 ft | 282 kts | 254° |
| 2026-04-30 04:31 | 1.51287 | 103.52265 | 6634 ft | 280 kts | 253° |
| 2026-04-30 04:31 | 1.50719 | 103.50361 | 6811 ft | 300 kts | 253° |
| 2026-04-30 04:31 | 1.50293 | 103.48984 | 6918 ft | 313 kts | 252° |
| 2026-04-30 04:31 | 1.49730 | 103.46168 | 7861 ft | 304 kts | 273° |
| 2026-04-30 04:32 | 1.49931 | 103.44129 | 8715 ft | 296 kts | 276° |
| 2026-04-30 04:32 | 1.49899 | 103.42068 | 9218 ft | 301 kts | 258° |
| 2026-04-30 04:32 | 1.49213 | 103.40084 | 9767 ft | 303 kts | 242° |
| 2026-04-30 04:32 | 1.48528 | 103.38876 | 10095 ft | 304 kts | 237° |
| 2026-04-30 04:33 | 1.46867 | 103.36462 | 10337 ft | 326 kts | 234° |
| 2026-04-30 04:33 | 1.46110 | 103.35138 | 10398 ft | 338 kts | 249° |
| 2026-04-30 04:33 | 1.45713 | 103.32787 | 10510 ft | 353 kts | 275° |
| 2026-04-30 04:33 | 1.46411 | 103.30411 | 10647 ft | 364 kts | 299° |
| 2026-04-30 04:34 | 1.47691 | 103.28195 | 10955 ft | 371 kts | 302° |
| 2026-04-30 04:34 | 1.49034 | 103.25985 | 11410 ft | 373 kts | 302° |
| 2026-04-30 04:34 | 1.50397 | 103.23764 | 11875 ft | 375 kts | 302° |
| 2026-04-30 04:34 | 1.51744 | 103.21556 | 12321 ft | 378 kts | 302° |
| 2026-04-30 04:35 | 1.53112 | 103.19294 | 12754 ft | 381 kts | 302° |
| 2026-04-30 04:35 | 1.54483 | 103.17012 | 13185 ft | 384 kts | 302° |
| 2026-04-30 04:35 | 1.55859 | 103.14708 | 13636 ft | 387 kts | 302° |
| 2026-04-30 04:35 | 1.57241 | 103.12388 | 14026 ft | 390 kts | 302° |
| 2026-04-30 04:36 | 1.58627 | 103.10054 | 14414 ft | 392 kts | 302° |
| 2026-04-30 04:36 | 1.60023 | 103.07702 | 14801 ft | 394 kts | 301° |
| 2026-04-30 04:36 | 1.61426 | 103.05338 | 15175 ft | 396 kts | 301° |
| 2026-04-30 04:36 | 1.62838 | 103.02957 | 15554 ft | 399 kts | 301° |
| 2026-04-30 04:37 | 1.64255 | 103.00570 | 15924 ft | 401 kts | 301° |
| 2026-04-30 04:37 | 1.65666 | 102.98191 | 16276 ft | 404 kts | 301° |
| 2026-04-30 04:37 | 1.67102 | 102.95770 | 16637 ft | 406 kts | 301° |
| 2026-04-30 04:37 | 1.68547 | 102.93334 | 16997 ft | 408 kts | 301° |
| 2026-04-30 04:38 | 1.70001 | 102.90884 | 17347 ft | 410 kts | 301° |
| 2026-04-30 04:38 | 1.71462 | 102.88421 | 17697 ft | 413 kts | 301° |
| 2026-04-30 04:38 | 1.72928 | 102.85949 | 18039 ft | 415 kts | 301° |
| 2026-04-30 04:38 | 1.74411 | 102.83449 | 18353 ft | 417 kts | 301° |
| 2026-04-30 04:39 | 1.75894 | 102.80949 | 18648 ft | 419 kts | 301° |
| 2026-04-30 04:39 | 1.77381 | 102.78442 | 18944 ft | 420 kts | 301° |
| 2026-04-30 04:39 | 1.78877 | 102.75919 | 19228 ft | 422 kts | 301° |
| 2026-04-30 04:39 | 1.80377 | 102.73390 | 19519 ft | 424 kts | 301° |
| 2026-04-30 04:40 | 1.81884 | 102.70848 | 19799 ft | 426 kts | 301° |
| 2026-04-30 04:40 | 1.83401 | 102.68291 | 20074 ft | 428 kts | 301° |
| 2026-04-30 04:40 | 1.84900 | 102.65763 | 20341 ft | 430 kts | 301° |
| 2026-04-30 04:40 | 1.86428 | 102.63186 | 20612 ft | 431 kts | 301° |
| 2026-04-30 04:41 | 1.87962 | 102.60598 | 20873 ft | 433 kts | 301° |
| 2026-04-30 04:41 | 1.89502 | 102.58000 | 21138 ft | 435 kts | 301° |
| 2026-04-30 04:41 | 1.91050 | 102.55388 | 21389 ft | 437 kts | 301° |
| 2026-04-30 04:41 | 1.92603 | 102.52769 | 21647 ft | 439 kts | 301° |
| 2026-04-30 04:42 | 1.94163 | 102.50136 | 21870 ft | 440 kts | 301° |
| 2026-04-30 04:42 | 1.95728 | 102.47497 | 22123 ft | 442 kts | 301° |
| 2026-04-30 04:42 | 1.97410 | 102.44965 | 22341 ft | 443 kts | 309° |
| 2026-04-30 04:42 | 1.99498 | 102.42689 | 22579 ft | 444 kts | 318° |
| 2026-04-30 04:43 | 2.01916 | 102.40772 | 22803 ft | 444 kts | 327° |
| 2026-04-30 04:43 | 2.04477 | 102.39044 | 23031 ft | 445 kts | 327° |
| 2026-04-30 04:43 | 2.07071 | 102.37329 | 23242 ft | 447 kts | 328° |
| 2026-04-30 04:43 | 2.09668 | 102.35604 | 23442 ft | 449 kts | 327° |
| 2026-04-30 04:44 | 2.12278 | 102.33851 | 23635 ft | 451 kts | 327° |
| 2026-04-30 04:44 | 2.14868 | 102.32093 | 23835 ft | 451 kts | 327° |
| 2026-04-30 04:44 | 2.17460 | 102.30323 | 24121 ft | 449 kts | 327° |
| 2026-04-30 04:44 | 2.20028 | 102.28565 | 24394 ft | 447 kts | 327° |
| 2026-04-30 04:45 | 2.22591 | 102.26813 | 24676 ft | 445 kts | 327° |
| 2026-04-30 04:45 | 2.25144 | 102.25069 | 24958 ft | 444 kts | 327° |
| 2026-04-30 04:45 | 2.27672 | 102.23310 | 25245 ft | 442 kts | 326° |
| 2026-04-30 04:45 | 2.30154 | 102.21498 | 25535 ft | 441 kts | 324° |
| 2026-04-30 04:46 | 2.32609 | 102.19672 | 25827 ft | 439 kts | 324° |
| 2026-04-30 04:46 | 2.35022 | 102.17872 | 26115 ft | 437 kts | 324° |
| 2026-04-30 04:46 | 2.37460 | 102.16061 | 26416 ft | 435 kts | 324° |
| 2026-04-30 04:46 | 2.39889 | 102.14265 | 26716 ft | 434 kts | 325° |
| 2026-04-30 04:47 | 2.42319 | 102.12474 | 27017 ft | 432 kts | 325° |
| 2026-04-30 04:47 | 2.44741 | 102.10692 | 27326 ft | 430 kts | 325° |
| 2026-04-30 04:47 | 2.47142 | 102.08927 | 27629 ft | 428 kts | 325° |
| 2026-04-30 04:47 | 2.49539 | 102.07164 | 27948 ft | 426 kts | 325° |
| 2026-04-30 04:48 | 2.51924 | 102.05410 | 28260 ft | 424 kts | 325° |
| 2026-04-30 04:48 | 2.54298 | 102.03662 | 28573 ft | 422 kts | 325° |
| 2026-04-30 04:48 | 2.56654 | 102.01922 | 28902 ft | 420 kts | 325° |
| 2026-04-30 04:48 | 2.58997 | 102.00187 | 29219 ft | 417 kts | 325° |
| 2026-04-30 04:49 | 2.61318 | 101.98466 | 29550 ft | 415 kts | 325° |
| 2026-04-30 04:49 | 2.63627 | 101.96754 | 29884 ft | 412 kts | 325° |
| 2026-04-30 04:49 | 2.65921 | 101.95053 | 30177 ft | 409 kts | 325° |
| 2026-04-30 04:49 | 2.68198 | 101.93365 | 30462 ft | 405 kts | 325° |
| 2026-04-30 04:50 | 2.70454 | 101.91693 | 30747 ft | 402 kts | 325° |
| 2026-04-30 04:50 | 2.72665 | 101.90054 | 31035 ft | 398 kts | 325° |
| 2026-04-30 04:50 | 2.74884 | 101.88409 | 31324 ft | 394 kts | 325° |
| 2026-04-30 04:50 | 2.77090 | 101.86774 | 31437 ft | 396 kts | 325° |
| 2026-04-30 04:51 | 2.79325 | 101.85119 | 31413 ft | 402 kts | 325° |
| 2026-04-30 04:51 | 2.83867 | 101.81754 | 31493 ft | 409 kts | 325° |
| 2026-04-30 04:52 | 2.88487 | 101.78330 | 31575 ft | 417 kts | 325° |
| 2026-04-30 04:52 | 2.93160 | 101.74865 | 31653 ft | 425 kts | 325° |
| 2026-04-30 04:53 | 2.97952 | 101.71312 | 31737 ft | 432 kts | 325° |
| 2026-04-30 04:53 | 3.02839 | 101.67688 | 31813 ft | 440 kts | 324° |
| 2026-04-30 04:54 | 3.07793 | 101.64013 | 31889 ft | 447 kts | 324° |
| 2026-04-30 04:54 | 3.12794 | 101.60304 | 32056 ft | 451 kts | 324° |
| 2026-04-30 04:54 | 3.15303 | 101.58442 | 32269 ft | 449 kts | 324° |
| 2026-04-30 04:55 | 3.17805 | 101.56584 | 32522 ft | 447 kts | 324° |
| 2026-04-30 04:55 | 3.20299 | 101.54734 | 32731 ft | 446 kts | 324° |
| 2026-04-30 04:55 | 3.22789 | 101.52886 | 32882 ft | 445 kts | 324° |
| 2026-04-30 04:55 | 3.25281 | 101.51036 | 33042 ft | 445 kts | 324° |
| 2026-04-30 04:56 | 3.27769 | 101.49190 | 33208 ft | 444 kts | 324° |
| 2026-04-30 04:56 | 3.30254 | 101.47346 | 33368 ft | 444 kts | 324° |
| 2026-04-30 04:56 | 3.32770 | 101.45540 | 33513 ft | 443 kts | 329° |
| 2026-04-30 04:56 | 3.35417 | 101.44066 | 33662 ft | 441 kts | 334° |
| 2026-04-30 04:57 | 3.38150 | 101.42680 | 33821 ft | 440 kts | 335° |
| 2026-04-30 04:57 | 3.43635 | 101.39955 | 33894 ft | 441 kts | 335° |
| 2026-04-30 04:58 | 3.49116 | 101.37194 | 33902 ft | 441 kts | 334° |
| 2026-04-30 04:58 | 3.54579 | 101.34407 | 33900 ft | 440 kts | 334° |
| 2026-04-30 04:59 | 3.60030 | 101.31618 | 33900 ft | 440 kts | 334° |
| 2026-04-30 04:59 | 3.65481 | 101.28829 | 33903 ft | 440 kts | 334° |
| 2026-04-30 05:00 | 3.70904 | 101.26056 | 33900 ft | 439 kts | 334° |
| 2026-04-30 05:00 | 3.76354 | 101.23268 | 33902 ft | 439 kts | 334° |
| 2026-04-30 05:01 | 3.81826 | 101.20552 | 33908 ft | 439 kts | 335° |
| 2026-04-30 05:01 | 3.87338 | 101.17893 | 33906 ft | 439 kts | 335° |
| 2026-04-30 05:02 | 3.92847 | 101.15230 | 33909 ft | 439 kts | 335° |
| 2026-04-30 05:02 | 3.98321 | 101.12571 | 33904 ft | 440 kts | 335° |
| 2026-04-30 05:03 | 4.03819 | 101.09895 | 33910 ft | 440 kts | 335° |
| 2026-04-30 05:03 | 4.09325 | 101.07214 | 33905 ft | 440 kts | 335° |
| 2026-04-30 05:04 | 4.14834 | 101.04532 | 33910 ft | 440 kts | 335° |
| 2026-04-30 05:04 | 4.20335 | 101.01854 | 33913 ft | 441 kts | 335° |
| 2026-04-30 05:05 | 4.25874 | 100.99156 | 33920 ft | 444 kts | 335° |
| 2026-04-30 05:05 | 4.31425 | 100.96452 | 33920 ft | 447 kts | 335° |
| 2026-04-30 05:06 | 4.39854 | 100.92345 | 33920 ft | 450 kts | 335° |
| 2026-04-30 05:06 | 4.45464 | 100.89578 | 33900 ft | 446 kts | 332° |
| 2026-04-30 05:07 | 4.50487 | 100.86023 | 33873 ft | 445 kts | 323° |
| 2026-04-30 05:07 | 4.52944 | 100.84095 | 33480 ft | 449 kts | 323° |
| 2026-04-30 05:07 | 4.55393 | 100.82162 | 33109 ft | 445 kts | 323° |
| 2026-04-30 05:08 | 4.57826 | 100.80251 | 32684 ft | 442 kts | 324° |
| 2026-04-30 05:08 | 4.60244 | 100.78363 | 32266 ft | 439 kts | 324° |
| 2026-04-30 05:08 | 4.62658 | 100.76489 | 31867 ft | 436 kts | 324° |
| 2026-04-30 05:08 | 4.65054 | 100.74636 | 31466 ft | 433 kts | 324° |
| 2026-04-30 05:09 | 4.67436 | 100.72798 | 31067 ft | 431 kts | 324° |
| 2026-04-30 05:09 | 4.69808 | 100.70969 | 30648 ft | 429 kts | 324° |
| 2026-04-30 05:09 | 4.72138 | 100.69173 | 30235 ft | 428 kts | 324° |
| 2026-04-30 05:09 | 4.74494 | 100.67357 | 29795 ft | 426 kts | 324° |
| 2026-04-30 05:10 | 4.76841 | 100.65547 | 29343 ft | 424 kts | 324° |
| 2026-04-30 05:10 | 4.79177 | 100.63744 | 28911 ft | 421 kts | 324° |
| 2026-04-30 05:10 | 4.81486 | 100.61963 | 28484 ft | 418 kts | 324° |
| 2026-04-30 05:10 | 4.83793 | 100.60182 | 28065 ft | 416 kts | 324° |
| 2026-04-30 05:11 | 4.86079 | 100.58417 | 27653 ft | 413 kts | 324° |
| 2026-04-30 05:11 | 4.88351 | 100.56664 | 27250 ft | 411 kts | 324° |
| 2026-04-30 05:11 | 4.90609 | 100.54921 | 26847 ft | 409 kts | 324° |
| 2026-04-30 05:11 | 4.92854 | 100.53188 | 26438 ft | 407 kts | 324° |
| 2026-04-30 05:12 | 4.95099 | 100.51455 | 26020 ft | 406 kts | 324° |
| 2026-04-30 05:12 | 4.97304 | 100.49752 | 25621 ft | 404 kts | 324° |
| 2026-04-30 05:12 | 4.99529 | 100.48035 | 25193 ft | 404 kts | 324° |
| 2026-04-30 05:12 | 5.01756 | 100.46315 | 24794 ft | 403 kts | 324° |
| 2026-04-30 05:13 | 5.03979 | 100.44598 | 24374 ft | 403 kts | 324° |
| 2026-04-30 05:13 | 5.06204 | 100.42879 | 23966 ft | 403 kts | 324° |
| 2026-04-30 05:13 | 5.08423 | 100.41165 | 23553 ft | 403 kts | 324° |
| 2026-04-30 05:13 | 5.10646 | 100.39448 | 23082 ft | 402 kts | 323° |
| 2026-04-30 05:14 | 5.12852 | 100.37742 | 22668 ft | 400 kts | 323° |
| 2026-04-30 05:14 | 5.15057 | 100.36039 | 22253 ft | 399 kts | 323° |
| 2026-04-30 05:14 | 5.17256 | 100.34339 | 21842 ft | 397 kts | 323° |
| 2026-04-30 05:14 | 5.19433 | 100.32656 | 21452 ft | 395 kts | 323° |
| 2026-04-30 05:15 | 5.21601 | 100.30980 | 21059 ft | 393 kts | 323° |
| 2026-04-30 05:15 | 5.23739 | 100.29327 | 20666 ft | 391 kts | 323° |
| 2026-04-30 05:15 | 5.25898 | 100.27658 | 20252 ft | 391 kts | 323° |
| 2026-04-30 05:15 | 5.28078 | 100.26047 | 19853 ft | 389 kts | 328° |
| 2026-04-30 05:16 | 5.30456 | 100.24727 | 19182 ft | 396 kts | 335° |
| 2026-04-30 05:16 | 5.32948 | 100.23539 | 18738 ft | 396 kts | 336° |
| 2026-04-30 05:16 | 5.35455 | 100.22380 | 18317 ft | 395 kts | 336° |
| 2026-04-30 05:16 | 5.37953 | 100.21226 | 17862 ft | 395 kts | 336° |
| 2026-04-30 05:17 | 5.40440 | 100.20066 | 17456 ft | 392 kts | 336° |
| 2026-04-30 05:17 | 5.42904 | 100.18905 | 17039 ft | 389 kts | 336° |
| 2026-04-30 05:17 | 5.45340 | 100.17748 | 16664 ft | 386 kts | 336° |
| 2026-04-30 05:17 | 5.47764 | 100.16592 | 16270 ft | 383 kts | 336° |
| 2026-04-30 05:18 | 5.50166 | 100.15443 | 15889 ft | 381 kts | 336° |
| 2026-04-30 05:18 | 5.52528 | 100.14313 | 15512 ft | 379 kts | 336° |
| 2026-04-30 05:18 | 5.54902 | 100.13176 | 15129 ft | 376 kts | 336° |
| 2026-04-30 05:18 | 5.57262 | 100.12046 | 14762 ft | 374 kts | 336° |
| 2026-04-30 05:19 | 5.59613 | 100.10919 | 14370 ft | 373 kts | 336° |
| 2026-04-30 05:19 | 5.61943 | 100.09803 | 14007 ft | 371 kts | 336° |
| 2026-04-30 05:19 | 5.64276 | 100.08685 | 13601 ft | 370 kts | 336° |
| 2026-04-30 05:19 | 5.66586 | 100.07578 | 13205 ft | 367 kts | 336° |
| 2026-04-30 05:20 | 5.68893 | 100.06473 | 12813 ft | 365 kts | 336° |
| 2026-04-30 05:20 | 5.70411 | 100.05746 | 12559 ft | 363 kts | 336° |
| 2026-04-30 05:20 | 5.72679 | 100.04659 | 12184 ft | 361 kts | 336° |
| 2026-04-30 05:20 | 5.75674 | 100.03223 | 11702 ft | 357 kts | 336° |
| 2026-04-30 05:21 | 5.77915 | 100.02149 | 11342 ft | 355 kts | 336° |
| 2026-04-30 05:21 | 5.79421 | 100.01427 | 11095 ft | 354 kts | 336° |
| 2026-04-30 05:21 | 5.82355 | 100.00021 | 10622 ft | 351 kts | 336° |
| 2026-04-30 05:21 | 5.83814 | 99.99321 | 10380 ft | 350 kts | 336° |
| 2026-04-30 05:22 | 5.85989 | 99.98278 | 10207 ft | 342 kts | 336° |
| 2026-04-30 05:22 | 5.88123 | 99.97254 | 10043 ft | 334 kts | 336° |
| 2026-04-30 05:22 | 5.90198 | 99.96258 | 9872 ft | 327 kts | 336° |
| 2026-04-30 05:22 | 5.92849 | 99.94986 | 9839 ft | 310 kts | 337° |
| 2026-04-30 05:23 | 5.94124 | 99.94374 | 9818 ft | 302 kts | 337° |
| 2026-04-30 05:23 | 5.95996 | 99.93476 | 9745 ft | 292 kts | 337° |
| 2026-04-30 05:23 | 5.97812 | 99.92605 | 9569 ft | 286 kts | 337° |
| 2026-04-30 05:23 | 5.99612 | 99.91743 | 9263 ft | 285 kts | 337° |
| 2026-04-30 05:24 | 6.01403 | 99.90885 | 8960 ft | 284 kts | 337° |
| 2026-04-30 05:24 | 6.03164 | 99.90040 | 8678 ft | 283 kts | 337° |
| 2026-04-30 05:24 | 6.04961 | 99.89178 | 8396 ft | 282 kts | 337° |
| 2026-04-30 05:24 | 6.06706 | 99.88341 | 8105 ft | 281 kts | 336° |
| 2026-04-30 05:25 | 6.08461 | 99.87499 | 7840 ft | 279 kts | 336° |
| 2026-04-30 05:25 | 6.10212 | 99.86659 | 7579 ft | 278 kts | 336° |
| 2026-04-30 05:25 | 6.11836 | 99.85625 | 7267 ft | 280 kts | 315° |
| 2026-04-30 05:25 | 6.12826 | 99.83955 | 6980 ft | 281 kts | 287° |
| 2026-04-30 05:26 | 6.13135 | 99.82016 | 6727 ft | 280 kts | 275° |
| 2026-04-30 05:26 | 6.13270 | 99.80064 | 6448 ft | 280 kts | 274° |
| 2026-04-30 05:26 | 6.13390 | 99.78110 | 6167 ft | 279 kts | 274° |
| 2026-04-30 05:26 | 6.13515 | 99.76193 | 5883 ft | 278 kts | 274° |
| 2026-04-30 05:27 | 6.13650 | 99.74254 | 5605 ft | 277 kts | 275° |
| 2026-04-30 05:27 | 6.13791 | 99.72330 | 5331 ft | 276 kts | 275° |
| 2026-04-30 05:27 | 6.13936 | 99.70405 | 5062 ft | 275 kts | 275° |
| 2026-04-30 05:27 | 6.14081 | 99.68491 | 4793 ft | 274 kts | 275° |
| 2026-04-30 05:28 | 6.14263 | 99.66597 | 4516 ft | 272 kts | 284° |
| 2026-04-30 05:28 | 6.15083 | 99.64920 | 4160 ft | 269 kts | 315° |
| 2026-04-30 05:28 | 6.16679 | 99.63950 | 3565 ft | 275 kts | 349° |
| 2026-04-30 05:28 | 6.18567 | 99.63968 | 3344 ft | 267 kts | 13° |
| 2026-04-30 05:29 | 6.20321 | 99.64489 | 3212 ft | 259 kts | 24° |
| 2026-04-30 05:29 | 6.21887 | 99.65269 | 3075 ft | 249 kts | 31° |
| 2026-04-30 05:29 | 6.23293 | 99.66182 | 2987 ft | 231 kts | 36° |
| 2026-04-30 05:29 | 6.24548 | 99.67063 | 2950 ft | 211 kts | 35° |
| 2026-04-30 05:30 | 6.25730 | 99.67880 | 2993 ft | 202 kts | 35° |
| 2026-04-30 05:30 | 6.26887 | 99.68667 | 2798 ft | 203 kts | 34° |
| 2026-04-30 05:30 | 6.28146 | 99.69530 | 1694 ft | 234 kts | 35° |
| 2026-04-30 05:30 | 6.29523 | 99.70486 | 740 ft | 245 kts | 35° |
| 2026-04-30 05:31 | 6.30860 | 99.71419 | 460 ft | 219 kts | 34° |
| 2026-04-30 05:31 | 6.32048 | 99.72215 | 359 ft | 183 kts | 32° |
| 2026-04-30 05:31 | 6.33014 | 99.72875 | 1014 ft | 160 kts | 34° |
| 2026-04-30 05:31 | 6.33988 | 99.73504 | 1317 ft | 174 kts | 33° |
| 2026-04-30 05:32 | 6.35089 | 99.74212 | 1563 ft | 204 kts | 36° |
| 2026-04-30 05:32 | 6.36016 | 99.75338 | 2047 ft | 223 kts | 67° |
| 2026-04-30 05:32 | 6.36253 | 99.76913 | 2563 ft | 239 kts | 99° |
| 2026-04-30 05:32 | 6.35504 | 99.78391 | 2827 ft | 248 kts | 135° |
| 2026-04-30 05:33 | 6.33977 | 99.79341 | 2797 ft | 274 kts | 162° |
| 2026-04-30 05:33 | 6.32030 | 99.79437 | 2732 ft | 292 kts | 195° |
| 2026-04-30 05:33 | 6.30171 | 99.78579 | 3073 ft | 296 kts | 209° |
| 2026-04-30 05:33 | 6.28386 | 99.77516 | 2942 ft | 300 kts | 211° |
| 2026-04-30 05:34 | 6.26614 | 99.76449 | 3177 ft | 286 kts | 210° |
| 2026-04-30 05:34 | 6.24935 | 99.75466 | 3213 ft | 275 kts | 210° |
| 2026-04-30 05:34 | 6.23340 | 99.74505 | 3400 ft | 255 kts | 210° |
| 2026-04-30 05:34 | 6.21868 | 99.73592 | 3453 ft | 241 kts | 210° |
| 2026-04-30 05:35 | 6.20433 | 99.72710 | 3219 ft | 241 kts | 210° |
| 2026-04-30 05:35 | 6.19074 | 99.71848 | 3170 ft | 224 kts | 211° |
| 2026-04-30 05:35 | 6.17996 | 99.70814 | 3101 ft | 210 kts | 242° |
| 2026-04-30 05:35 | 6.17633 | 99.69426 | 2736 ft | 213 kts | 272° |
| 2026-04-30 05:36 | 6.18061 | 99.67999 | 2238 ft | 211 kts | 304° |
| 2026-04-30 05:36 | 6.19086 | 99.67037 | 1840 ft | 203 kts | 335° |
| 2026-04-30 05:36 | 6.20474 | 99.66767 | 1303 ft | 204 kts | 7° |
| 2026-04-30 05:36 | 6.21775 | 99.66955 | 1404 ft | 176 kts | 9° |
| 2026-04-30 05:37 | 6.23021 | 99.67146 | 1442 ft | 192 kts | 9° |
| 2026-04-30 05:37 | 6.24335 | 99.67454 | 1554 ft | 193 kts | 17° |
| 2026-04-30 05:37 | 6.25608 | 99.67878 | 1678 ft | 194 kts | 22° |
| 2026-04-30 05:37 | 6.26816 | 99.68479 | 1615 ft | 191 kts | 32° |
| 2026-04-30 05:38 | 6.27853 | 99.69214 | 1521 ft | 168 kts | 37° |
| 2026-04-30 05:38 | 6.28764 | 99.69926 | 1061 ft | 170 kts | 39° |
| 2026-04-30 05:38 | 6.29698 | 99.70638 | 691 ft | 164 kts | 35° |
| 2026-04-30 05:38 | 6.30596 | 99.71239 | 533 ft | 154 kts | 33° |
| 2026-04-30 05:39 | 6.31505 | 99.71852 | 214 ft | 158 kts | 32° |
| 2026-04-30 05:39 | 6.32390 | 99.72460 | 45 ft | 146 kts | 33° |
| 2026-04-30 05:39 | 6.33145 | 99.72979 | 34 ft | 113 kts | 34° |
| 2026-04-30 05:39 | 6.33669 | 99.73336 | 33 ft | 69 kts | 34° |
| 2026-04-30 05:40 | 6.33941 | 99.73519 | 33 ft | 26 kts | 34° |
| 2026-04-30 05:40 | 6.33986 | 99.73550 | 31 ft | 0 kts | 34° |
| 2026-04-30 05:40 | 6.33989 | 99.73549 | 34 ft | 0 kts | 355° |
| 2026-04-30 05:41 | 6.33991 | 99.73544 | 34 ft | 1 kts | 309° |
| 2026-04-30 05:41 | 6.33997 | 99.73535 | 32 ft | 2 kts | 300° |
| 2026-04-30 05:41 | 6.34005 | 99.73520 | 34 ft | 4 kts | 300° |
| 2026-04-30 05:41 | 6.34024 | 99.73488 | 33 ft | 7 kts | 300° |
| 2026-04-30 05:42 | 6.34056 | 99.73440 | 33 ft | 10 kts | 306° |
| 2026-04-30 05:42 | 6.34095 | 99.73382 | 33 ft | 10 kts | 295° |
| 2026-04-30 05:42 | 6.34070 | 99.73323 | 32 ft | 10 kts | 217° |
| 2026-04-30 05:42 | 6.34018 | 99.73285 | 32 ft | 7 kts | 224° |
| 2026-04-30 05:43 | 6.34017 | 99.73264 | 32 ft | 2 kts | 297° |
| 2026-04-30 05:43 | 6.34025 | 99.73252 | 32 ft | 2 kts | 302° |
| 2026-04-30 05:43 | 6.34036 | 99.73234 | 31 ft | 4 kts | 303° |
| 2026-04-30 05:43 | 6.34041 | 99.73226 | 32 ft | 0 kts | 303° |